sensor_id;sensor_type;location;lat;lon;timestamp;pressure;altitude;pressure_sealevel;temperature;humidity
70127;BME280;57491;42.694;23.314;2024-01-06T00:00:25;94957.97;;;9.58;67.26
70127;BME280;57491;42.694;23.314;2024-01-06T00:02:53;94959.31;;;9.54;66.66
70127;BME280;57491;42.694;23.314;2024-01-06T00:05:21;94951.25;;;9.64;67.00
70127;BME280;57491;42.694;23.314;2024-01-06T00:07:48;94963.31;;;9.57;67.04
70127;BME280;57491;42.694;23.314;2024-01-06T00:10:15;94945.97;;;9.57;66.39
70127;BME280;57491;42.694;23.314;2024-01-06T00:12:44;94935.66;;;9.64;66.86
70127;BME280;57491;42.694;23.314;2024-01-06T00:15:11;94941.34;;;9.67;65.79
70127;BME280;57491;42.694;23.314;2024-01-06T00:17:39;94958.06;;;9.65;66.61
70127;BME280;57491;42.694;23.314;2024-01-06T00:20:07;94960.31;;;9.68;67.99
70127;BME280;57491;42.694;23.314;2024-01-06T00:22:34;94924.53;;;9.40;66.74
70127;BME280;57491;42.694;23.314;2024-01-06T00:25:02;94966.78;;;9.72;67.38
70127;BME280;57491;42.694;23.314;2024-01-06T00:27:30;94964.22;;;9.64;66.39
70127;BME280;57491;42.694;23.314;2024-01-06T00:29:58;94957.72;;;9.68;66.87
70127;BME280;57491;42.694;23.314;2024-01-06T00:32:26;94955.47;;;9.65;67.44
70127;BME280;57491;42.694;23.314;2024-01-06T00:34:53;94976.63;;;9.76;66.77
70127;BME280;57491;42.694;23.314;2024-01-06T00:37:21;94973.91;;;9.70;67.38
70127;BME280;57491;42.694;23.314;2024-01-06T00:39:49;94971.41;;;9.62;65.54
70127;BME280;57491;42.694;23.314;2024-01-06T00:42:17;94968.28;;;9.44;65.94
70127;BME280;57491;42.694;23.314;2024-01-06T00:44:44;94968.53;;;9.34;66.06
70127;BME280;57491;42.694;23.314;2024-01-06T00:47:14;94961.09;;;9.31;66.10
70127;BME280;57491;42.694;23.314;2024-01-06T00:49:41;94947.69;;;9.27;66.31
70127;BME280;57491;42.694;23.314;2024-01-06T00:52:09;94939.38;;;9.32;67.35
70127;BME280;57491;42.694;23.314;2024-01-06T00:54:36;94923.63;;;9.11;67.00
70127;BME280;57491;42.694;23.314;2024-01-06T00:57:04;94956.50;;;9.18;66.22
70127;BME280;57491;42.694;23.314;2024-01-06T00:59:32;94956.31;;;9.20;67.24
70127;BME280;57491;42.694;23.314;2024-01-06T01:01:59;94932.28;;;9.03;67.96
70127;BME280;57491;42.694;23.314;2024-01-06T01:04:28;94956.22;;;9.13;66.92
70127;BME280;57491;42.694;23.314;2024-01-06T01:06:55;94937.41;;;9.11;67.99
70127;BME280;57491;42.694;23.314;2024-01-06T01:09:22;94953.63;;;9.13;67.86
70127;BME280;57491;42.694;23.314;2024-01-06T01:11:50;94962.06;;;9.07;66.98
70127;BME280;57491;42.694;23.314;2024-01-06T01:14:17;94933.03;;;8.89;67.18
70127;BME280;57491;42.694;23.314;2024-01-06T01:16:45;94935.25;;;8.92;67.54
70127;BME280;57491;42.694;23.314;2024-01-06T01:19:12;94947.44;;;8.91;68.51
70127;BME280;57491;42.694;23.314;2024-01-06T01:21:41;94953.53;;;8.99;69.46
70127;BME280;57491;42.694;23.314;2024-01-06T01:24:08;94941.19;;;9.01;69.83
70127;BME280;57491;42.694;23.314;2024-01-06T01:26:35;94941.97;;;9.09;70.13
70127;BME280;57491;42.694;23.314;2024-01-06T01:29:03;94935.03;;;9.02;68.15
70127;BME280;57491;42.694;23.314;2024-01-06T01:31:30;94931.81;;;9.00;67.40
70127;BME280;57491;42.694;23.314;2024-01-06T01:33:57;94927.78;;;8.97;67.54
70127;BME280;57491;42.694;23.314;2024-01-06T01:36:25;94929.53;;;9.05;68.38
70127;BME280;57491;42.694;23.314;2024-01-06T01:38:53;94930.28;;;9.13;67.99
70127;BME280;57491;42.694;23.314;2024-01-06T01:41:21;94928.13;;;9.17;69.12
70127;BME280;57491;42.694;23.314;2024-01-06T01:43:48;94918.38;;;9.19;68.90
70127;BME280;57491;42.694;23.314;2024-01-06T01:46:25;94920.34;;;9.17;68.55
70127;BME280;57491;42.694;23.314;2024-01-06T01:48:52;94922.06;;;9.02;68.37
70127;BME280;57491;42.694;23.314;2024-01-06T01:51:23;94912.16;;;9.05;67.79
70127;BME280;57491;42.694;23.314;2024-01-06T01:53:51;94915.91;;;9.03;67.63
70127;BME280;57491;42.694;23.314;2024-01-06T01:56:21;94890.28;;;8.85;68.50
70127;BME280;57491;42.694;23.314;2024-01-06T01:58:48;94913.03;;;8.98;69.47
70127;BME280;57491;42.694;23.314;2024-01-06T02:01:16;94920.00;;;8.97;68.65
70127;BME280;57491;42.694;23.314;2024-01-06T02:03:44;94911.53;;;9.03;68.76
70127;BME280;57491;42.694;23.314;2024-01-06T02:06:12;94908.72;;;9.13;69.01
70127;BME280;57491;42.694;23.314;2024-01-06T02:08:39;94904.78;;;9.17;70.17
70127;BME280;57491;42.694;23.314;2024-01-06T02:11:07;94901.97;;;9.26;70.83
70127;BME280;57491;42.694;23.314;2024-01-06T02:13:37;94886.03;;;9.29;70.39
70127;BME280;57491;42.694;23.314;2024-01-06T02:16:05;94876.19;;;9.25;69.66
70127;BME280;57491;42.694;23.314;2024-01-06T02:18:32;94883.28;;;9.31;69.76
70127;BME280;57491;42.694;23.314;2024-01-06T02:21:01;94874.16;;;9.35;69.79
70127;BME280;57491;42.694;23.314;2024-01-06T02:23:30;94875.03;;;9.27;68.67
70127;BME280;57491;42.694;23.314;2024-01-06T02:25:57;94877.69;;;9.19;67.88
70127;BME280;57491;42.694;23.314;2024-01-06T02:28:24;94876.09;;;9.18;67.85
70127;BME280;57491;42.694;23.314;2024-01-06T02:30:52;94856.03;;;9.12;67.58
70127;BME280;57491;42.694;23.314;2024-01-06T02:33:19;94856.63;;;9.00;67.09
70127;BME280;57491;42.694;23.314;2024-01-06T02:35:49;94854.56;;;8.95;67.40
70127;BME280;57491;42.694;23.314;2024-01-06T02:38:16;94857.47;;;8.92;68.38
70127;BME280;57491;42.694;23.314;2024-01-06T02:40:45;94858.13;;;8.94;68.49
70127;BME280;57491;42.694;23.314;2024-01-06T02:43:12;94851.78;;;8.96;68.15
70127;BME280;57491;42.694;23.314;2024-01-06T02:45:40;94846.94;;;8.93;68.83
70127;BME280;57491;42.694;23.314;2024-01-06T02:48:09;94850.06;;;8.89;68.69
70127;BME280;57491;42.694;23.314;2024-01-06T02:50:36;94862.25;;;9.03;69.16
70127;BME280;57491;42.694;23.314;2024-01-06T02:53:04;94852.25;;;9.00;69.45
70127;BME280;57491;42.694;23.314;2024-01-06T02:55:31;94854.13;;;9.06;68.97
70127;BME280;57491;42.694;23.314;2024-01-06T02:58:00;94836.78;;;9.07;68.32
70127;BME280;57491;42.694;23.314;2024-01-06T03:00:27;94839.31;;;8.92;67.76
70127;BME280;57491;42.694;23.314;2024-01-06T03:02:54;94836.28;;;8.88;67.42
70127;BME280;57491;42.694;23.314;2024-01-06T03:05:22;94830.66;;;8.85;67.30
70127;BME280;57491;42.694;23.314;2024-01-06T03:07:49;94831.38;;;8.93;68.41
70127;BME280;57491;42.694;23.314;2024-01-06T03:10:16;94832.06;;;8.87;66.77
70127;BME280;57491;42.694;23.314;2024-01-06T03:12:44;94829.97;;;8.91;66.56
70127;BME280;57491;42.694;23.314;2024-01-06T03:15:13;94828.88;;;8.85;65.94
70127;BME280;57491;42.694;23.314;2024-01-06T03:17:40;94833.75;;;8.80;65.79
70127;BME280;57491;42.694;23.314;2024-01-06T03:20:08;94816.19;;;8.68;65.80
70127;BME280;57491;42.694;23.314;2024-01-06T03:22:36;94806.88;;;8.36;65.56
70127;BME280;57491;42.694;23.314;2024-01-06T03:25:04;94819.97;;;8.34;65.93
70127;BME280;57491;42.694;23.314;2024-01-06T03:27:32;94817.22;;;8.36;66.33
70127;BME280;57491;42.694;23.314;2024-01-06T03:29:59;94822.06;;;8.39;65.80
70127;BME280;57491;42.694;23.314;2024-01-06T03:32:28;94806.50;;;8.39;65.62
70127;BME280;57491;42.694;23.314;2024-01-06T03:34:55;94820.78;;;8.35;65.05
70127;BME280;57491;42.694;23.314;2024-01-06T03:37:23;94824.84;;;8.37;65.30
70127;BME280;57491;42.694;23.314;2024-01-06T03:39:50;94816.66;;;8.48;66.37
70127;BME280;57491;42.694;23.314;2024-01-06T03:42:17;94786.69;;;8.23;65.33
70127;BME280;57491;42.694;23.314;2024-01-06T03:44:45;94804.66;;;8.47;64.90
70127;BME280;57491;42.694;23.314;2024-01-06T03:47:12;94814.22;;;8.70;65.76
70127;BME280;57491;42.694;23.314;2024-01-06T03:49:42;94825.63;;;8.83;65.21
70127;BME280;57491;42.694;23.314;2024-01-06T03:52:09;94825.97;;;8.80;65.95
70127;BME280;57491;42.694;23.314;2024-01-06T03:54:36;94825.75;;;8.90;64.44
70127;BME280;57491;42.694;23.314;2024-01-06T03:57:04;94804.84;;;8.91;63.57
70127;BME280;57491;42.694;23.314;2024-01-06T03:59:31;94805.09;;;8.96;63.95
70127;BME280;57491;42.694;23.314;2024-01-06T04:01:58;94803.25;;;9.05;65.76
70127;BME280;57491;42.694;23.314;2024-01-06T04:04:26;94801.28;;;9.07;64.65
70127;BME280;57491;42.694;23.314;2024-01-06T04:06:54;94806.84;;;9.19;64.67
70127;BME280;57491;42.694;23.314;2024-01-06T04:09:22;94812.13;;;9.25;65.38
70127;BME280;57491;42.694;23.314;2024-01-06T04:11:49;94814.44;;;9.20;63.67
70127;BME280;57491;42.694;23.314;2024-01-06T04:14:16;94801.84;;;9.17;65.21
70127;BME280;57491;42.694;23.314;2024-01-06T04:16:44;94806.50;;;9.22;65.50
70127;BME280;57491;42.694;23.314;2024-01-06T04:19:11;94817.78;;;9.29;63.64
70127;BME280;57491;42.694;23.314;2024-01-06T04:21:39;94804.34;;;9.25;67.08
70127;BME280;57491;42.694;23.314;2024-01-06T04:24:07;94798.28;;;9.18;65.07
70127;BME280;57491;42.694;23.314;2024-01-06T04:26:35;94805.53;;;9.23;63.83
70127;BME280;57491;42.694;23.314;2024-01-06T04:29:02;94797.91;;;9.21;64.02
70127;BME280;57491;42.694;23.314;2024-01-06T04:31:30;94824.31;;;9.25;66.04
70127;BME280;57491;42.694;23.314;2024-01-06T04:33:57;94828.06;;;9.22;63.21
70127;BME280;57491;42.694;23.314;2024-01-06T04:36:24;94833.06;;;9.24;65.61
70127;BME280;57491;42.694;23.314;2024-01-06T04:38:52;94834.75;;;9.17;65.64
70127;BME280;57491;42.694;23.314;2024-01-06T04:41:20;94841.09;;;9.14;64.31
70127;BME280;57491;42.694;23.314;2024-01-06T04:43:48;94819.03;;;9.18;66.85
70127;BME280;57491;42.694;23.314;2024-01-06T04:46:15;94832.03;;;9.10;66.09
70127;BME280;57491;42.694;23.314;2024-01-06T04:48:42;94845.09;;;9.02;64.91
70127;BME280;57491;42.694;23.314;2024-01-06T04:51:10;94839.81;;;9.10;66.98
70127;BME280;57491;42.694;23.314;2024-01-06T04:53:38;94814.97;;;8.78;67.30
70127;BME280;57491;42.694;23.314;2024-01-06T04:56:05;94845.38;;;8.84;65.74
70127;BME280;57491;42.694;23.314;2024-01-06T04:58:34;94830.88;;;8.75;66.42
70127;BME280;57491;42.694;23.314;2024-01-06T05:01:02;94826.84;;;8.73;66.60
70127;BME280;57491;42.694;23.314;2024-01-06T05:03:30;94712.47;;;7.85;66.53
70127;BME280;57491;42.694;23.314;2024-01-06T05:05:57;94835.84;;;8.62;67.29
70127;BME280;57491;42.694;23.314;2024-01-06T05:08:24;94810.09;;;8.61;68.55
70127;BME280;57491;42.694;23.314;2024-01-06T05:10:52;94802.94;;;8.63;68.53
70127;BME280;57491;42.694;23.314;2024-01-06T05:13:20;94814.97;;;8.56;67.09
70127;BME280;57491;42.694;23.314;2024-01-06T05:15:49;94815.25;;;8.61;66.85
70127;BME280;57491;42.694;23.314;2024-01-06T05:18:16;94820.75;;;8.66;65.90
70127;BME280;57491;42.694;23.314;2024-01-06T05:20:43;94813.09;;;8.49;63.93
70127;BME280;57491;42.694;23.314;2024-01-06T05:23:11;94799.13;;;8.28;62.76
70127;BME280;57491;42.694;23.314;2024-01-06T05:25:38;94810.53;;;8.11;62.85
70127;BME280;57491;42.694;23.314;2024-01-06T05:28:05;94789.25;;;8.00;63.48
70127;BME280;57491;42.694;23.314;2024-01-06T05:30:33;94802.00;;;8.02;63.05
70127;BME280;57491;42.694;23.314;2024-01-06T05:33:02;94787.41;;;7.78;63.46
70127;BME280;57491;42.694;23.314;2024-01-06T05:35:30;94785.75;;;7.46;65.60
70127;BME280;57491;42.694;23.314;2024-01-06T05:37:57;94791.38;;;7.50;65.14
70127;BME280;57491;42.694;23.314;2024-01-06T05:40:24;94796.72;;;7.48;64.68
70127;BME280;57491;42.694;23.314;2024-01-06T05:42:52;94781.38;;;7.39;65.77
70127;BME280;57491;42.694;23.314;2024-01-06T05:45:21;94798.84;;;7.45;64.73
70127;BME280;57491;42.694;23.314;2024-01-06T05:47:49;94799.53;;;7.23;65.30
70127;BME280;57491;42.694;23.314;2024-01-06T05:50:19;94793.56;;;7.22;65.68
70127;BME280;57491;42.694;23.314;2024-01-06T05:52:46;94806.97;;;7.26;64.47
70127;BME280;57491;42.694;23.314;2024-01-06T05:55:14;94788.59;;;7.04;65.22
70127;BME280;57491;42.694;23.314;2024-01-06T05:57:42;94801.19;;;7.15;65.02
70127;BME280;57491;42.694;23.314;2024-01-06T06:00:10;94794.53;;;7.21;64.58
70127;BME280;57491;42.694;23.314;2024-01-06T06:02:37;94791.28;;;7.27;64.36
70127;BME280;57491;42.694;23.314;2024-01-06T06:05:05;94787.41;;;7.31;64.12
70127;BME280;57491;42.694;23.314;2024-01-06T06:07:34;94791.25;;;7.35;64.94
70127;BME280;57491;42.694;23.314;2024-01-06T06:10:06;94794.13;;;7.48;65.03
70127;BME280;57491;42.694;23.314;2024-01-06T06:12:34;94780.53;;;7.54;64.93
70127;BME280;57491;42.694;23.314;2024-01-06T06:15:02;94792.13;;;7.67;63.33
70127;BME280;57491;42.694;23.314;2024-01-06T06:17:29;94782.69;;;7.82;65.79
70127;BME280;57491;42.694;23.314;2024-01-06T06:19:57;94796.25;;;7.92;62.56
70127;BME280;57491;42.694;23.314;2024-01-06T06:22:24;94793.00;;;7.90;62.44
70127;BME280;57491;42.694;23.314;2024-01-06T06:24:57;94792.25;;;7.81;61.83
70127;BME280;57491;42.694;23.314;2024-01-06T06:27:25;94770.97;;;7.63;62.24
70127;BME280;57491;42.694;23.314;2024-01-06T06:29:52;94774.31;;;7.72;61.74
70127;BME280;57491;42.694;23.314;2024-01-06T06:32:20;94805.81;;;7.83;61.72
70127;BME280;57491;42.694;23.314;2024-01-06T06:34:47;94793.31;;;7.95;63.69
70127;BME280;57491;42.694;23.314;2024-01-06T06:37:14;94811.34;;;8.11;62.21
70127;BME280;57491;42.694;23.314;2024-01-06T06:39:42;94775.44;;;8.08;62.59
70127;BME280;57491;42.694;23.314;2024-01-06T06:42:12;94784.00;;;8.39;63.42
70127;BME280;57491;42.694;23.314;2024-01-06T06:44:39;94809.97;;;8.54;61.90
70127;BME280;57491;42.694;23.314;2024-01-06T06:47:06;94802.16;;;8.62;60.61
70127;BME280;57491;42.694;23.314;2024-01-06T06:49:34;94783.84;;;8.64;61.61
70127;BME280;57491;42.694;23.314;2024-01-06T06:52:01;94800.28;;;8.71;59.57
70127;BME280;57491;42.694;23.314;2024-01-06T06:54:30;94801.09;;;8.71;59.49
70127;BME280;57491;42.694;23.314;2024-01-06T06:56:57;94782.66;;;8.89;60.81
70127;BME280;57491;42.694;23.314;2024-01-06T06:59:26;94783.53;;;8.96;59.75
70127;BME280;57491;42.694;23.314;2024-01-06T07:01:53;94799.66;;;9.06;58.89
70127;BME280;57491;42.694;23.314;2024-01-06T07:04:20;94761.31;;;9.16;58.49
70127;BME280;57491;42.694;23.314;2024-01-06T07:06:49;94781.28;;;9.30;59.35
70127;BME280;57491;42.694;23.314;2024-01-06T07:09:16;94796.31;;;9.35;57.63
70127;BME280;57491;42.694;23.314;2024-01-06T07:11:44;94771.00;;;9.37;59.52
70127;BME280;57491;42.694;23.314;2024-01-06T07:14:12;94789.78;;;9.39;57.98
70127;BME280;57491;42.694;23.314;2024-01-06T07:16:41;94794.25;;;9.30;58.47
70127;BME280;57491;42.694;23.314;2024-01-06T07:19:08;94779.47;;;9.46;58.49
70127;BME280;57491;42.694;23.314;2024-01-06T07:21:36;94802.78;;;9.54;56.80
70127;BME280;57491;42.694;23.314;2024-01-06T07:24:04;94774.84;;;9.56;60.82
70127;BME280;57491;42.694;23.314;2024-01-06T07:26:32;94779.75;;;9.51;57.52
70127;BME280;57491;42.694;23.314;2024-01-06T07:28:59;94780.41;;;9.53;58.51
70127;BME280;57491;42.694;23.314;2024-01-06T07:31:26;94786.13;;;9.63;58.39
70127;BME280;57491;42.694;23.314;2024-01-06T07:33:55;94797.38;;;9.70;57.64
70127;BME280;57491;42.694;23.314;2024-01-06T07:36:23;94768.03;;;9.69;58.54
70127;BME280;57491;42.694;23.314;2024-01-06T07:38:50;94771.75;;;9.96;60.58
70127;BME280;57491;42.694;23.314;2024-01-06T07:41:17;94787.69;;;9.93;57.62
70127;BME280;57491;42.694;23.314;2024-01-06T07:43:45;94776.97;;;9.81;57.32
70127;BME280;57491;42.694;23.314;2024-01-06T07:46:12;94786.97;;;9.99;57.41
70127;BME280;57491;42.694;23.314;2024-01-06T07:48:40;94782.84;;;10.05;56.77
70127;BME280;57491;42.694;23.314;2024-01-06T07:51:09;94771.63;;;10.19;58.62
70127;BME280;57491;42.694;23.314;2024-01-06T07:53:36;94790.75;;;10.33;57.01
70127;BME280;57491;42.694;23.314;2024-01-06T07:56:04;94775.38;;;10.31;56.46
70127;BME280;57491;42.694;23.314;2024-01-06T07:58:35;94767.88;;;10.43;57.61
70127;BME280;57491;42.694;23.314;2024-01-06T08:01:06;94784.25;;;10.86;55.93
70127;BME280;57491;42.694;23.314;2024-01-06T08:03:41;94775.09;;;11.11;56.15
70127;BME280;57491;42.694;23.314;2024-01-06T08:09:13;94767.94;;;11.54;56.07
70127;BME280;57491;42.694;23.314;2024-01-06T08:11:40;94789.81;;;11.32;54.78
70127;BME280;57491;42.694;23.314;2024-01-06T08:14:08;94794.69;;;11.41;54.28
70127;BME280;57491;42.694;23.314;2024-01-06T08:16:36;94762.84;;;11.39;56.67
70127;BME280;57491;42.694;23.314;2024-01-06T08:19:04;94786.00;;;11.28;54.43
70127;BME280;57491;42.694;23.314;2024-01-06T08:21:32;94769.81;;;11.32;56.98
70127;BME280;57491;42.694;23.314;2024-01-06T08:24:00;94775.66;;;11.34;53.98
70127;BME280;57491;42.694;23.314;2024-01-06T08:26:29;94776.66;;;11.40;56.06
70127;BME280;57491;42.694;23.314;2024-01-06T08:28:57;94777.69;;;11.39;53.18
70127;BME280;57491;42.694;23.314;2024-01-06T08:31:24;94779.03;;;11.35;56.03
70127;BME280;57491;42.694;23.314;2024-01-06T08:33:51;94798.03;;;11.63;53.86
70127;BME280;57491;42.694;23.314;2024-01-06T08:36:19;94766.22;;;12.08;54.12
70127;BME280;57491;42.694;23.314;2024-01-06T08:38:46;94772.50;;;12.34;51.76
70127;BME280;57491;42.694;23.314;2024-01-06T08:41:13;94763.31;;;12.44;52.02
70127;BME280;57491;42.694;23.314;2024-01-06T08:43:42;94797.81;;;12.53;50.64
70127;BME280;57491;42.694;23.314;2024-01-06T08:46:09;94766.19;;;12.82;49.94
70127;BME280;57491;42.694;23.314;2024-01-06T08:48:37;94795.50;;;13.11;48.81
70127;BME280;57491;42.694;23.314;2024-01-06T08:51:05;94777.66;;;13.27;48.49
70127;BME280;57491;42.694;23.314;2024-01-06T08:53:32;94774.03;;;13.35;47.20
70127;BME280;57491;42.694;23.314;2024-01-06T08:55:59;94764.78;;;13.19;48.35
70127;BME280;57491;42.694;23.314;2024-01-06T08:58:27;94771.41;;;13.22;48.72
70127;BME280;57491;42.694;23.314;2024-01-06T09:00:55;94768.56;;;13.43;48.01
70127;BME280;57491;42.694;23.314;2024-01-06T09:03:23;94765.56;;;13.46;46.44
70127;BME280;57491;42.694;23.314;2024-01-06T09:05:52;94763.56;;;13.28;47.54
70127;BME280;57491;42.694;23.314;2024-01-06T09:08:19;94744.31;;;13.10;47.63
70127;BME280;57491;42.694;23.314;2024-01-06T09:10:47;94761.97;;;13.27;47.04
70127;BME280;57491;42.694;23.314;2024-01-06T09:13:17;94728.59;;;13.49;46.88
70127;BME280;57491;42.694;23.314;2024-01-06T09:15:44;94751.53;;;14.05;45.82
70127;BME280;57491;42.694;23.314;2024-01-06T09:18:13;94739.19;;;14.56;45.17
70127;BME280;57491;42.694;23.314;2024-01-06T09:20:40;94727.09;;;14.87;44.51
70127;BME280;57491;42.694;23.314;2024-01-06T09:23:07;94735.66;;;14.76;42.84
70127;BME280;57491;42.694;23.314;2024-01-06T09:25:36;94732.19;;;14.50;43.37
70127;BME280;57491;42.694;23.314;2024-01-06T09:28:04;94721.41;;;14.40;42.99
70127;BME280;57491;42.694;23.314;2024-01-06T09:30:31;94704.91;;;14.33;44.84
70127;BME280;57491;42.694;23.314;2024-01-06T09:32:58;94720.88;;;14.18;43.85
70127;BME280;57491;42.694;23.314;2024-01-06T09:35:28;94724.47;;;13.79;45.55
70127;BME280;57491;42.694;23.314;2024-01-06T09:37:58;94703.91;;;13.45;46.81
70127;BME280;57491;42.694;23.314;2024-01-06T09:40:25;94698.91;;;13.24;46.90
70127;BME280;57491;42.694;23.314;2024-01-06T09:42:55;94697.72;;;13.20;48.50
70127;BME280;57491;42.694;23.314;2024-01-06T09:45:22;94692.53;;;13.13;48.49
70127;BME280;57491;42.694;23.314;2024-01-06T09:47:51;94699.31;;;13.08;47.33
70127;BME280;57491;42.694;23.314;2024-01-06T09:50:20;94674.44;;;12.98;49.66
70127;BME280;57491;42.694;23.314;2024-01-06T09:52:49;94694.72;;;13.03;46.98
70127;BME280;57491;42.694;23.314;2024-01-06T09:55:23;94666.84;;;12.90;47.07
70127;BME280;57491;42.694;23.314;2024-01-06T09:57:52;94674.84;;;13.02;47.77
70127;BME280;57491;42.694;23.314;2024-01-06T10:00:20;94641.97;;;12.81;47.14
70127;BME280;57491;42.694;23.314;2024-01-06T10:02:48;94686.72;;;12.91;47.12
70127;BME280;57491;42.694;23.314;2024-01-06T10:05:17;94667.44;;;12.79;46.55
70127;BME280;57491;42.694;23.314;2024-01-06T10:07:45;94656.19;;;12.66;46.96
70127;BME280;57491;42.694;23.314;2024-01-06T10:10:14;94666.44;;;12.67;47.91
70127;BME280;57491;42.694;23.314;2024-01-06T10:12:42;94660.03;;;12.37;47.62
70127;BME280;57491;42.694;23.314;2024-01-06T10:15:10;94651.59;;;12.35;48.77
70127;BME280;57491;42.694;23.314;2024-01-06T10:17:38;94652.41;;;12.42;48.03
70127;BME280;57491;42.694;23.314;2024-01-06T10:20:06;94646.38;;;12.48;48.12
70127;BME280;57491;42.694;23.314;2024-01-06T10:22:35;94631.94;;;12.13;48.10
70127;BME280;57491;42.694;23.314;2024-01-06T10:25:02;94642.56;;;12.31;49.38
70127;BME280;57491;42.694;23.314;2024-01-06T10:27:37;94636.75;;;12.55;49.35
70127;BME280;57491;42.694;23.314;2024-01-06T10:30:06;94615.28;;;12.73;48.99
70127;BME280;57491;42.694;23.314;2024-01-06T10:32:34;94637.16;;;12.72;47.40
70127;BME280;57491;42.694;23.314;2024-01-06T10:35:02;94606.78;;;13.04;49.00
70127;BME280;57491;42.694;23.314;2024-01-06T10:37:30;94631.84;;;13.31;46.59
70127;BME280;57491;42.694;23.314;2024-01-06T10:40:15;94610.09;;;13.44;45.34
70127;BME280;57491;42.694;23.314;2024-01-06T10:42:45;94612.00;;;13.68;45.69
70127;BME280;57491;42.694;23.314;2024-01-06T10:45:13;94605.81;;;13.94;45.13
70127;BME280;57491;42.694;23.314;2024-01-06T10:47:41;94623.84;;;14.02;44.52
70127;BME280;57491;42.694;23.314;2024-01-06T10:50:11;94574.03;;;13.97;44.70
70127;BME280;57491;42.694;23.314;2024-01-06T10:52:41;94604.97;;;14.00;44.26
70127;BME280;57491;42.694;23.314;2024-01-06T10:55:10;94584.28;;;13.98;43.38
70127;BME280;57491;42.694;23.314;2024-01-06T10:57:38;94573.19;;;14.03;44.29
70127;BME280;57491;42.694;23.314;2024-01-06T11:00:10;94573.19;;;14.03;43.23
70127;BME280;57491;42.694;23.314;2024-01-06T11:02:38;94553.03;;;13.78;42.91
70127;BME280;57491;42.694;23.314;2024-01-06T11:05:06;94570.16;;;14.30;42.08
70127;BME280;57491;42.694;23.314;2024-01-06T11:07:36;94563.00;;;14.69;41.21
70127;BME280;57491;42.694;23.314;2024-01-06T11:10:09;94562.38;;;14.92;40.89
70127;BME280;57491;42.694;23.314;2024-01-06T11:12:39;94554.31;;;14.93;41.97
70127;BME280;57491;42.694;23.314;2024-01-06T11:15:09;94518.81;;;14.97;40.10
70127;BME280;57491;42.694;23.314;2024-01-06T11:17:52;94547.00;;;15.13;39.51
70127;BME280;57491;42.694;23.314;2024-01-06T11:20:21;94542.50;;;15.69;39.06
70127;BME280;57491;42.694;23.314;2024-01-06T11:22:49;94542.31;;;17.05;37.51
70127;BME280;57491;42.694;23.314;2024-01-06T11:25:18;94551.13;;;17.38;35.68
70127;BME280;57491;42.694;23.314;2024-01-06T11:27:46;94540.41;;;17.97;35.57
70127;BME280;57491;42.694;23.314;2024-01-06T11:30:22;94531.59;;;18.91;33.43
70127;BME280;57491;42.694;23.314;2024-01-06T11:32:52;94521.69;;;20.44;31.69
70127;BME280;57491;42.694;23.314;2024-01-06T11:35:20;94535.16;;;22.69;28.67
70127;BME280;57491;42.694;23.314;2024-01-06T11:37:56;94501.69;;;24.22;26.39
70127;BME280;57491;42.694;23.314;2024-01-06T11:40:30;94505.09;;;23.79;26.18
70127;BME280;57491;42.694;23.314;2024-01-06T11:43:00;94485.66;;;23.44;26.43
70127;BME280;57491;42.694;23.314;2024-01-06T11:45:29;94489.00;;;23.01;26.68
70127;BME280;57491;42.694;23.314;2024-01-06T11:47:58;94490.31;;;21.77;28.38
70127;BME280;57491;42.694;23.314;2024-01-06T11:50:26;94465.19;;;21.79;28.91
70127;BME280;57491;42.694;23.314;2024-01-06T11:52:53;94481.56;;;21.66;28.39
70127;BME280;57491;42.694;23.314;2024-01-06T11:55:21;94481.81;;;20.45;30.34
70127;BME280;57491;42.694;23.314;2024-01-06T11:57:49;94441.41;;;20.97;30.28
70127;BME280;57491;42.694;23.314;2024-01-06T12:00:17;94463.03;;;22.93;27.30
70127;BME280;57491;42.694;23.314;2024-01-06T12:02:46;94466.69;;;23.07;26.87
70127;BME280;57491;42.694;23.314;2024-01-06T12:05:16;94457.03;;;22.27;27.93
70127;BME280;57491;42.694;23.314;2024-01-06T12:07:52;94452.22;;;21.73;28.71
70127;BME280;57491;42.694;23.314;2024-01-06T12:10:20;94420.81;;;20.47;30.66
70127;BME280;57491;42.694;23.314;2024-01-06T12:12:55;94425.38;;;19.56;32.02
70127;BME280;57491;42.694;23.314;2024-01-06T12:15:24;94413.81;;;18.26;34.40
70127;BME280;57491;42.694;23.314;2024-01-06T12:17:54;94420.75;;;17.21;36.66
70127;BME280;57491;42.694;23.314;2024-01-06T12:20:22;94419.00;;;16.70;37.55
70127;BME280;57491;42.694;23.314;2024-01-06T12:22:51;94428.84;;;16.28;39.13
70127;BME280;57491;42.694;23.314;2024-01-06T12:25:20;94441.03;;;16.11;38.85
70127;BME280;57491;42.694;23.314;2024-01-06T12:27:48;94427.00;;;15.82;38.65
70127;BME280;57491;42.694;23.314;2024-01-06T12:30:18;94447.84;;;15.77;39.34
70127;BME280;57491;42.694;23.314;2024-01-06T12:32:46;94450.47;;;15.47;40.47
70127;BME280;57491;42.694;23.314;2024-01-06T12:35:16;94465.03;;;15.13;41.12
70127;BME280;57491;42.694;23.314;2024-01-06T12:37:44;94449.16;;;14.96;42.59
70127;BME280;57491;42.694;23.314;2024-01-06T12:40:13;94431.97;;;14.70;42.38
70127;BME280;57491;42.694;23.314;2024-01-06T12:42:42;94436.69;;;14.80;42.60
70127;BME280;57491;42.694;23.314;2024-01-06T12:45:10;94415.44;;;15.18;42.34
70127;BME280;57491;42.694;23.314;2024-01-06T12:47:38;94428.91;;;16.44;39.72
70127;BME280;57491;42.694;23.314;2024-01-06T12:50:07;94403.00;;;16.71;39.90
70127;BME280;57491;42.694;23.314;2024-01-06T12:52:36;94405.78;;;16.41;40.11
70127;BME280;57491;42.694;23.314;2024-01-06T12:55:05;94403.53;;;16.10;40.27
70127;BME280;57491;42.694;23.314;2024-01-06T12:57:33;94408.53;;;15.88;41.23
70127;BME280;57491;42.694;23.314;2024-01-06T13:00:00;94414.69;;;16.29;40.13
70127;BME280;57491;42.694;23.314;2024-01-06T13:02:27;94419.03;;;16.00;41.03